createdAt,value
2019-03-01T00:01:25.196Z,15.93
2019-03-01T00:04:07.778Z,12.20
2019-03-01T00:06:44.009Z,13.40
2019-03-01T00:09:48.137Z,14.37
2019-03-01T00:12:31.376Z,14.13
2019-03-01T00:15:19.625Z,20.92
2019-03-01T00:18:40.076Z,9.97
2019-03-01T00:21:28.486Z,12.85
2019-03-01T00:24:34.120Z,19.40
2019-03-01T00:27:32.616Z,18.30
2019-03-01T00:30:45.867Z,15.43
2019-03-01T00:33:53.969Z,15.03
2019-03-01T00:36:49.260Z,15.57
2019-03-01T00:39:47.629Z,17.37
2019-03-01T00:42:40.728Z,18.87
2019-03-01T00:47:45.060Z,13.27
2019-03-01T00:50:14.576Z,22.53
2019-03-01T00:52:43.705Z,14.20
2019-03-01T00:55:13.265Z,14.90
2019-03-01T00:57:42.420Z,14.87
2019-03-01T01:00:20.920Z,21.67
2019-03-01T01:02:50.596Z,20.33
2019-03-01T01:05:20.526Z,15.33
2019-03-01T01:07:49.618Z,19.13
2019-03-01T01:10:18.753Z,18.53
2019-03-01T01:12:48.609Z,14.67
2019-03-01T01:15:17.776Z,23.53
2019-03-01T01:17:47.537Z,20.73
2019-03-01T01:20:16.625Z,16.90
2019-03-01T01:22:45.704Z,18.13
2019-03-01T01:25:14.913Z,18.10
2019-03-01T01:27:44.064Z,22.45
2019-03-01T01:30:13.704Z,28.47
2019-03-01T01:32:42.781Z,21.82
2019-03-01T01:35:12.040Z,27.43
2019-03-01T01:40:17.164Z,21.03
2019-03-01T01:42:46.668Z,24.73
2019-03-01T01:45:16.164Z,22.20
2019-03-01T01:47:45.833Z,17.30
2019-03-01T01:50:14.990Z,16.37
2019-03-01T01:52:44.024Z,16.67
2019-03-01T01:55:13.292Z,19.43
2019-03-01T01:57:45.944Z,19.90
2019-03-01T02:00:15.476Z,22.15
2019-03-01T02:02:45.084Z,22.40
2019-03-01T02:05:14.460Z,19.47
2019-03-01T02:07:43.685Z,21.85
2019-03-01T02:10:12.774Z,25.00
2019-03-01T02:12:42.008Z,23.07
2019-03-01T02:15:15.340Z,28.33
2019-03-01T02:17:45.315Z,22.40
2019-03-01T02:20:15.064Z,26.80
2019-03-01T02:22:45.094Z,21.43
2019-03-01T02:25:14.307Z,22.30
2019-03-01T02:27:43.803Z,14.85
2019-03-01T02:30:15.772Z,19.93
2019-03-01T02:32:46.512Z,19.27
2019-03-01T02:35:20.187Z,20.20
2019-03-01T02:37:49.917Z,15.40
2019-03-01T02:40:19.814Z,21.43
2019-03-01T02:42:48.952Z,21.47
2019-03-01T02:45:19.402Z,20.77
2019-03-01T02:47:48.775Z,22.60
2019-03-01T02:50:19.133Z,22.67
2019-03-01T02:52:48.188Z,25.37
2019-03-01T02:55:18.195Z,18.48
2019-03-01T02:57:47.275Z,17.40
2019-03-01T03:00:24.242Z,28.27
2019-03-01T03:02:53.516Z,27.47
2019-03-01T03:05:23.904Z,17.07
2019-03-01T03:07:54.902Z,23.30
2019-03-01T03:10:39.160Z,21.87
2019-03-01T03:13:09.725Z,25.68
2019-03-01T03:15:44.769Z,29.20
2019-03-01T03:18:14.264Z,21.57
2019-03-01T03:20:44.793Z,29.93
2019-03-01T03:23:13.884Z,25.23
2019-03-01T03:25:43.041Z,25.27
2019-03-01T03:28:12.592Z,23.90
2019-03-01T03:30:41.754Z,20.97
2019-03-01T03:33:11.502Z,28.30
2019-03-01T03:35:40.554Z,27.53
2019-03-01T03:38:10.022Z,26.73
2019-03-01T03:40:39.355Z,29.67
2019-03-01T03:43:09.328Z,25.27
2019-03-01T03:45:38.884Z,35.93
2019-03-01T03:48:09.112Z,29.80
2019-03-01T03:50:54.628Z,25.40
2019-03-01T03:53:24.081Z,26.47
2019-03-01T03:55:53.919Z,25.00
2019-03-01T03:58:23.354Z,33.60
2019-03-01T04:00:52.616Z,32.97
2019-03-01T04:03:22.893Z,26.55
2019-03-01T04:05:52.359Z,23.90
2019-03-01T04:08:22.528Z,31.10
2019-03-01T04:10:52.316Z,30.80
2019-03-01T04:13:21.719Z,34.73
2019-03-01T04:15:50.905Z,29.13
2019-03-01T04:18:21.021Z,25.30
2019-03-01T04:20:50.453Z,24.60
2019-03-01T04:23:19.945Z,26.55
2019-03-01T04:25:49.127Z,32.43
2019-03-01T04:28:18.201Z,34.97
2019-03-01T04:30:48.470Z,27.27
2019-03-01T04:33:17.580Z,30.02
2019-03-01T04:35:46.737Z,33.27
2019-03-01T04:38:17.040Z,28.27
2019-03-01T04:40:46.416Z,35.60
2019-03-01T04:43:15.781Z,29.40
2019-03-01T04:45:44.900Z,29.17
2019-03-01T04:48:15.547Z,29.30
2019-03-01T04:50:44.931Z,28.60
2019-03-01T04:53:14.064Z,33.33
2019-03-01T04:55:43.208Z,31.00
2019-03-01T04:58:14.522Z,28.27
2019-03-01T05:00:43.913Z,28.05
2019-03-01T05:03:14.144Z,28.27
2019-03-01T05:05:43.501Z,27.10
2019-03-01T05:08:12.953Z,37.55
2019-03-01T05:10:42.128Z,31.70
2019-03-01T05:13:11.525Z,26.23
2019-03-01T05:15:41.000Z,30.05
2019-03-01T05:18:10.116Z,29.53
2019-03-01T05:20:39.221Z,30.53
2019-03-01T05:23:09.977Z,29.40
2019-03-01T05:25:39.362Z,27.87
2019-03-01T05:28:09.039Z,34.40
2019-03-01T05:30:38.674Z,31.67
2019-03-01T05:33:07.884Z,30.47
2019-03-01T05:35:38.164Z,28.43
2019-03-01T05:38:07.264Z,31.43
2019-03-01T05:40:36.778Z,36.83
2019-03-01T05:43:06.077Z,28.23
2019-03-01T05:45:36.101Z,37.93
2019-03-01T05:48:05.251Z,34.03
2019-03-01T05:50:34.424Z,29.90
2019-03-01T05:53:03.776Z,34.27
2019-03-01T05:55:32.912Z,33.30
2019-03-01T05:58:33.329Z,35.70
2019-03-01T06:01:33.032Z,31.20
2019-03-01T06:04:22.210Z,35.37
2019-03-01T06:07:37.980Z,37.80
2019-03-01T06:10:55.000Z,35.87
2019-03-01T06:14:02.366Z,36.33
2019-03-01T06:17:25.045Z,43.80
2019-03-01T06:20:24.760Z,35.57
2019-03-01T06:23:17.121Z,47.33
2019-03-01T06:26:03.044Z,54.73
2019-03-01T06:29:03.343Z,53.23
2019-03-01T06:32:15.665Z,71.73
2019-03-01T06:35:09.760Z,63.53
2019-03-01T06:38:46.908Z,70.60
2019-03-01T06:41:55.791Z,68.10
2019-03-01T06:44:35.001Z,82.47
2019-03-01T06:47:20.796Z,102.30
2019-03-01T06:50:02.374Z,89.30
2019-03-01T06:52:31.881Z,104.20
2019-03-01T06:55:01.336Z,101.50
2019-03-01T06:57:30.776Z,122.03
2019-03-01T07:00:01.498Z,130.77
2019-03-01T07:02:38.724Z,136.13
2019-03-01T07:05:07.921Z,129.03
2019-03-01T07:07:36.997Z,148.50
2019-03-01T07:10:07.158Z,156.03
2019-03-01T07:12:36.624Z,164.47
2019-03-01T07:15:08.641Z,159.87
2019-03-01T07:17:36.926Z,161.32
2019-03-01T07:20:06.284Z,169.83
2019-03-01T07:22:35.356Z,174.40
2019-03-01T07:25:04.489Z,166.60
2019-03-01T07:30:08.364Z,182.53
2019-03-01T07:32:37.601Z,188.70
2019-03-01T07:35:07.066Z,197.03
2019-03-01T07:37:36.414Z,201.80
2019-03-01T07:40:06.195Z,206.23
2019-03-01T07:42:35.691Z,206.47
2019-03-01T07:45:05.504Z,201.93
2019-03-01T07:47:34.957Z,210.90
2019-03-01T07:50:04.817Z,204.33
2019-03-01T07:52:33.941Z,210.93
2019-03-01T07:55:03.449Z,212.87
2019-03-01T07:57:33.556Z,220.80
2019-03-01T08:00:02.682Z,221.43
2019-03-01T08:05:10.451Z,220.17
2019-03-01T08:07:39.704Z,225.78
2019-03-01T08:10:10.459Z,216.17
2019-03-01T08:12:42.340Z,230.93
2019-03-01T08:15:13.224Z,213.07
2019-03-01T08:17:42.398Z,214.63
2019-03-01T08:20:13.455Z,226.87
2019-03-01T08:22:48.539Z,218.40
2019-03-01T08:25:13.365Z,207.43
2019-03-01T08:30:18.770Z,215.62
2019-03-01T08:32:48.962Z,216.50
2019-03-01T08:35:18.425Z,216.43
2019-03-01T08:37:49.845Z,236.50
2019-03-01T08:40:18.753Z,244.40
2019-03-01T08:42:48.399Z,228.80
2019-03-01T08:45:17.648Z,235.70
2019-03-01T08:47:48.613Z,242.27
2019-03-01T08:50:17.748Z,233.90
2019-03-01T08:52:46.936Z,247.73
2019-03-01T08:55:17.560Z,247.37
2019-03-01T08:57:47.081Z,246.07
2019-03-01T09:00:19.099Z,245.30
2019-03-01T09:02:48.456Z,239.80
2019-03-01T09:05:17.840Z,232.97
2019-03-01T09:07:50.789Z,253.40
2019-03-01T09:10:20.370Z,257.60
2019-03-01T09:12:49.496Z,234.90
2019-03-01T09:15:19.041Z,235.77
2019-03-01T09:17:48.601Z,227.38
2019-03-01T09:20:17.712Z,213.43
2019-03-01T09:22:47.076Z,217.47
2019-03-01T09:25:16.389Z,195.10
2019-03-01T09:27:46.178Z,200.43
2019-03-01T09:30:20.855Z,181.93
2019-03-01T09:32:50.330Z,180.93
2019-03-01T09:35:30.069Z,198.50
2019-03-01T09:37:59.473Z,196.83
2019-03-01T09:40:29.692Z,195.28
2019-03-01T09:43:00.946Z,217.93
2019-03-01T09:45:36.234Z,224.47
2019-03-01T09:48:01.800Z,207.00
2019-03-01T09:50:31.658Z,219.15
2019-03-01T09:53:02.588Z,222.48
2019-03-01T09:55:34.762Z,234.70
2019-03-01T09:58:03.898Z,220.47
2019-03-01T10:00:35.145Z,214.67
2019-03-01T10:03:05.242Z,215.00
2019-03-01T10:05:34.440Z,206.13
2019-03-01T10:08:04.948Z,207.70
2019-03-01T10:10:34.134Z,195.03
2019-03-01T10:13:03.548Z,199.47
2019-03-01T10:15:33.692Z,189.13
2019-03-01T10:18:04.105Z,188.40
2019-03-01T10:20:33.782Z,156.40
2019-03-01T10:23:02.928Z,165.70
2019-03-01T10:25:32.114Z,170.33
2019-03-01T10:28:01.419Z,179.47
2019-03-01T10:30:31.638Z,176.90
2019-03-01T10:33:00.837Z,166.93
2019-03-01T10:35:29.995Z,156.30
2019-03-01T10:37:59.192Z,180.27
2019-03-01T10:40:28.326Z,169.60
2019-03-01T10:42:57.574Z,173.00
2019-03-01T10:45:27.081Z,180.60
2019-03-01T10:47:56.504Z,181.82
2019-03-01T10:50:25.584Z,194.17
2019-03-01T10:52:55.132Z,189.60
2019-03-01T10:55:24.389Z,177.17
2019-03-01T10:57:53.657Z,208.80
2019-03-01T11:00:24.128Z,183.90
2019-03-01T11:02:53.345Z,193.17
2019-03-01T11:05:22.542Z,184.90
2019-03-01T11:07:52.346Z,185.67
2019-03-01T11:10:24.044Z,175.93
2019-03-01T11:12:53.243Z,178.97
2019-03-01T11:15:22.453Z,187.27
2019-03-01T11:17:52.252Z,175.27
2019-03-01T11:20:22.528Z,179.53
2019-03-01T11:22:51.969Z,170.40
2019-03-01T11:25:21.748Z,163.87
2019-03-01T11:27:55.140Z,153.50
2019-03-01T11:30:26.235Z,139.70
2019-03-01T11:32:55.900Z,150.53
2019-03-01T11:35:26.064Z,123.27
2019-03-01T11:37:55.479Z,123.25
2019-03-01T11:40:29.937Z,122.80
2019-03-01T11:42:59.918Z,123.03
2019-03-01T11:45:28.994Z,111.17
2019-03-01T11:50:34.020Z,108.03
2019-03-01T11:53:03.443Z,95.75
2019-03-01T11:55:33.187Z,106.97
2019-03-01T11:58:02.346Z,100.65
2019-03-01T12:00:31.425Z,103.23
2019-03-01T12:03:02.404Z,101.57
2019-03-01T12:05:31.920Z,108.77
2019-03-01T12:08:01.828Z,84.97
2019-03-01T12:10:31.340Z,87.67
2019-03-01T12:13:00.738Z,87.80
2019-03-01T12:15:29.948Z,84.13
2019-03-01T12:17:59.054Z,94.00
2019-03-01T12:20:28.596Z,88.92
2019-03-01T12:22:58.074Z,82.73
2019-03-01T12:25:27.144Z,91.73
2019-03-01T12:27:58.380Z,91.27
2019-03-01T12:30:27.884Z,90.53
2019-03-01T12:32:57.314Z,95.92
2019-03-01T12:35:27.834Z,87.10
2019-03-01T12:37:56.940Z,82.43
2019-03-01T12:40:26.321Z,85.30
2019-03-01T12:42:55.424Z,77.87
2019-03-01T12:45:24.602Z,62.90
2019-03-01T12:47:53.741Z,69.27
2019-03-01T12:50:24.047Z,60.47
2019-03-01T12:52:53.968Z,56.57
2019-03-01T12:55:24.082Z,67.93
2019-03-01T12:57:53.256Z,74.90
2019-03-01T13:00:25.183Z,48.08
2019-03-01T13:02:54.641Z,54.83
2019-03-01T13:05:25.608Z,67.07
2019-03-01T13:07:55.092Z,83.52
2019-03-01T13:10:25.840Z,68.67
2019-03-01T13:12:55.224Z,76.43
2019-03-01T13:15:24.381Z,67.93
2019-03-01T13:17:53.850Z,73.95
2019-03-01T13:20:23.068Z,80.77
2019-03-01T13:22:52.564Z,78.80
2019-03-01T13:25:21.633Z,93.63
2019-03-01T13:27:52.599Z,90.10
2019-03-01T13:30:22.063Z,88.30
2019-03-01T13:32:52.080Z,75.42
2019-03-01T13:35:22.412Z,85.17
2019-03-01T13:37:55.588Z,81.60
2019-03-01T13:40:25.449Z,100.80
2019-03-01T13:42:54.921Z,116.35
2019-03-01T13:45:24.168Z,124.23
2019-03-01T13:47:53.640Z,125.67
2019-03-01T13:50:22.810Z,120.93
2019-03-01T13:52:51.988Z,122.17
2019-03-01T13:55:23.683Z,124.00
2019-03-01T13:57:53.085Z,140.97
2019-03-01T14:00:23.034Z,138.57
2019-03-01T14:02:52.267Z,144.77
2019-03-01T14:05:21.334Z,128.35
2019-03-01T14:07:55.346Z,139.10
2019-03-01T14:10:22.359Z,112.13
2019-03-01T14:12:51.504Z,117.05
2019-03-01T14:15:20.955Z,87.90
2019-03-01T14:17:51.089Z,73.55
2019-03-01T14:20:21.043Z,72.70
2019-03-01T14:22:50.392Z,82.33
2019-03-01T14:25:20.004Z,79.83
2019-03-01T14:27:52.800Z,78.33
2019-03-01T14:30:25.194Z,139.37
2019-03-01T14:32:57.754Z,175.27
2019-03-01T14:35:27.099Z,199.30
2019-03-01T14:37:56.653Z,173.80
2019-03-01T14:40:26.072Z,150.17
2019-03-01T14:42:55.971Z,147.93
2019-03-01T14:45:25.902Z,110.97
2019-03-01T14:47:55.409Z,81.85
2019-03-01T14:50:25.515Z,75.17
2019-03-01T14:52:58.845Z,76.87
2019-03-01T14:55:34.392Z,73.53
2019-03-01T14:58:06.929Z,70.30
2019-03-01T15:00:50.916Z,70.43
2019-03-01T15:03:31.225Z,63.27
2019-03-01T15:06:00.663Z,69.27
2019-03-01T15:08:30.064Z,47.27
2019-03-01T15:11:04.334Z,44.77
2019-03-01T15:13:34.918Z,46.67
2019-03-01T15:16:04.948Z,49.93
2019-03-01T15:18:36.352Z,48.07
2019-03-01T15:21:06.539Z,41.48
2019-03-01T15:23:35.884Z,43.30
2019-03-01T15:26:05.673Z,52.50
2019-03-01T15:28:46.262Z,45.17
2019-03-01T15:31:15.491Z,41.43
2019-03-01T15:33:47.010Z,29.00
2019-03-01T15:36:17.795Z,47.60
2019-03-01T15:38:48.516Z,39.08
2019-03-01T15:41:17.916Z,39.90
2019-03-01T15:43:47.078Z,43.97
2019-03-01T15:46:18.005Z,40.45
2019-03-01T15:48:47.735Z,43.33
2019-03-01T15:51:16.821Z,39.43
2019-03-01T15:53:46.185Z,43.30
2019-03-01T15:56:15.613Z,40.47
2019-03-01T15:58:46.849Z,40.43
2019-03-01T16:01:16.385Z,42.67
2019-03-01T16:03:45.585Z,45.27
2019-03-01T16:06:20.117Z,37.80
2019-03-01T16:08:48.082Z,41.17
2019-03-01T16:11:16.916Z,38.53
2019-03-01T16:13:49.028Z,49.13
2019-03-01T16:16:17.546Z,37.23
2019-03-01T16:18:46.704Z,43.63
2019-03-01T16:21:15.852Z,34.93
2019-03-01T16:23:44.965Z,34.13
2019-03-01T16:26:15.728Z,37.23
2019-03-01T16:28:44.780Z,33.17
2019-03-01T16:31:13.968Z,38.45
2019-03-01T16:33:43.436Z,28.55
2019-03-01T16:36:18.684Z,35.05
2019-03-01T16:38:49.003Z,31.90
2019-03-01T16:41:18.365Z,35.95
2019-03-01T16:43:47.727Z,35.97
2019-03-01T16:46:17.720Z,37.67
2019-03-01T16:48:48.789Z,35.67
2019-03-01T16:51:19.625Z,37.28
2019-03-01T16:53:48.997Z,37.93
2019-03-01T16:56:18.833Z,31.97
2019-03-01T16:58:48.813Z,32.60
2019-03-01T17:01:17.911Z,33.30
2019-03-01T17:03:49.516Z,31.63
2019-03-01T17:06:17.892Z,32.50
2019-03-01T17:08:47.053Z,38.83
2019-03-01T17:11:16.213Z,37.47
2019-03-01T17:13:45.273Z,31.60
2019-03-01T17:16:14.520Z,32.30
2019-03-01T17:18:44.556Z,31.20
2019-03-01T17:21:20.918Z,26.75
2019-03-01T17:23:50.104Z,26.27
2019-03-01T17:26:19.548Z,28.73
2019-03-01T17:28:49.898Z,29.23
2019-03-01T17:31:23.132Z,32.00
2019-03-01T17:33:52.160Z,25.13
2019-03-01T17:36:21.337Z,28.20
2019-03-01T17:38:50.570Z,28.43
2019-03-01T17:41:20.425Z,22.32
2019-03-01T17:43:49.557Z,24.00
2019-03-01T17:46:18.948Z,23.80
2019-03-01T17:48:57.309Z,21.90
2019-03-01T17:51:28.834Z,27.03
2019-03-01T17:53:58.197Z,19.53
2019-03-01T17:56:27.345Z,22.37
2019-03-01T17:58:56.787Z,25.60
2019-03-01T18:01:26.467Z,25.77
2019-03-01T18:03:58.036Z,18.33
2019-03-01T18:06:27.285Z,19.85
2019-03-01T18:08:57.242Z,16.17
2019-03-01T18:11:27.550Z,20.87
2019-03-01T18:14:00.360Z,21.23
2019-03-01T18:16:30.615Z,15.03
2019-03-01T18:19:00.071Z,18.33
2019-03-01T18:21:29.126Z,17.10
2019-03-01T18:23:58.298Z,13.33
2019-03-01T18:26:27.657Z,22.77
2019-03-01T18:28:57.064Z,18.50
2019-03-01T18:31:28.255Z,19.82
2019-03-01T18:33:58.455Z,22.73
2019-03-01T18:36:28.162Z,16.47
2019-03-01T18:39:00.128Z,13.75
2019-03-01T18:41:29.896Z,13.73
2019-03-01T18:43:59.465Z,16.60
2019-03-01T18:46:28.544Z,20.27
2019-03-01T18:48:57.674Z,15.43
2019-03-01T18:51:27.652Z,17.43
2019-03-01T18:53:57.077Z,18.52
2019-03-01T18:56:28.629Z,17.77
2019-03-01T18:59:16.663Z,17.53
2019-03-01T19:01:47.605Z,19.03
2019-03-01T19:04:29.029Z,17.10
2019-03-01T19:06:48.506Z,16.65
2019-03-01T19:09:18.480Z,21.20
2019-03-01T19:11:47.880Z,15.60
2019-03-01T19:14:17.325Z,17.87
2019-03-01T19:17:05.009Z,14.90
2019-03-01T19:19:33.004Z,17.65
2019-03-01T19:22:02.370Z,16.50
2019-03-01T19:24:31.622Z,22.07
2019-03-01T19:27:00.728Z,21.35
2019-03-01T19:29:30.584Z,20.53
2019-03-01T19:31:59.604Z,15.20
2019-03-01T19:34:29.282Z,19.10
2019-03-01T19:36:58.652Z,16.60
2019-03-01T19:39:28.264Z,18.37
2019-03-01T19:41:58.157Z,22.65
2019-03-01T19:44:29.718Z,25.87
2019-03-01T19:46:59.004Z,16.50
2019-03-01T19:49:28.853Z,22.13
2019-03-01T19:51:59.820Z,18.77
2019-03-01T19:54:32.312Z,19.17
2019-03-01T19:57:01.527Z,21.97
2019-03-01T19:59:31.233Z,21.77
2019-03-01T20:02:00.360Z,19.13
2019-03-01T20:04:29.560Z,19.33
2019-03-01T20:07:01.493Z,14.80
2019-03-01T20:09:31.164Z,14.77
2019-03-01T20:12:02.661Z,19.30
2019-03-01T20:14:33.823Z,14.43
2019-03-01T20:17:02.603Z,17.50
2019-03-01T20:19:35.821Z,20.20
2019-03-01T20:22:05.213Z,13.30
2019-03-01T20:24:39.976Z,14.83
2019-03-01T20:27:05.516Z,17.73
2019-03-01T20:29:34.737Z,13.62
2019-03-01T20:32:04.496Z,14.53
2019-03-01T20:34:34.806Z,17.45
2019-03-01T20:37:04.759Z,14.40
2019-03-01T20:42:07.789Z,15.40
2019-03-01T20:44:37.046Z,13.33
2019-03-01T20:47:06.105Z,11.37
2019-03-01T20:49:35.774Z,6.40
2019-03-01T20:52:06.194Z,9.57
2019-03-01T20:54:35.293Z,11.93
2019-03-01T20:57:04.652Z,5.80
2019-03-01T20:59:34.172Z,9.53
2019-03-01T21:02:03.312Z,13.03
2019-03-01T21:04:32.461Z,8.70
2019-03-01T21:07:03.090Z,11.43
2019-03-01T21:09:32.392Z,7.50
2019-03-01T21:12:01.926Z,13.18
2019-03-01T21:14:33.236Z,13.20
2019-03-01T21:17:02.837Z,8.63
2019-03-01T21:19:33.089Z,7.93
2019-03-01T21:22:04.731Z,10.03
2019-03-01T21:24:34.012Z,8.40
2019-03-01T21:27:03.076Z,12.03
2019-03-01T21:29:32.613Z,10.80
2019-03-01T21:34:39.362Z,7.72
2019-03-01T21:37:08.644Z,12.20
2019-03-01T21:39:37.776Z,12.00
2019-03-01T21:42:07.438Z,10.40
2019-03-01T21:44:36.888Z,15.77
2019-03-01T21:47:06.940Z,12.23
2019-03-01T21:49:37.075Z,15.70
2019-03-01T21:52:06.273Z,18.73
2019-03-01T21:54:35.460Z,15.93
2019-03-01T21:57:04.648Z,19.93
2019-03-01T21:59:34.948Z,23.73
2019-03-01T22:02:04.491Z,29.90
2019-03-01T22:04:34.430Z,27.20
2019-03-01T22:07:23.456Z,28.60
2019-03-01T22:09:52.612Z,27.02
2019-03-01T22:12:24.742Z,25.17
2019-03-01T22:14:53.744Z,26.80
2019-03-01T22:17:23.128Z,24.97
2019-03-01T22:19:55.458Z,24.33
2019-03-01T22:22:24.620Z,28.87
2019-03-01T22:24:54.624Z,16.20
2019-03-01T22:27:25.301Z,21.33
2019-03-01T22:29:55.564Z,17.80
2019-03-01T22:32:24.704Z,18.10
2019-03-01T22:34:53.896Z,16.50
2019-03-01T22:37:24.787Z,16.30
2019-03-01T22:39:55.384Z,16.40
2019-03-01T22:42:24.492Z,16.97
2019-03-01T22:44:57.480Z,19.10
2019-03-01T22:47:38.812Z,16.13
2019-03-01T22:50:08.528Z,18.57
2019-03-01T22:52:38.020Z,18.10
2019-03-01T22:55:08.113Z,15.03
2019-03-01T22:57:38.264Z,18.30
2019-03-01T23:00:11.286Z,16.73
2019-03-01T23:02:43.559Z,19.93
2019-03-01T23:05:13.244Z,20.70
2019-03-01T23:07:42.372Z,21.03
2019-03-01T23:10:14.081Z,26.87
2019-03-01T23:12:43.695Z,22.37
2019-03-01T23:15:14.127Z,24.17
2019-03-01T23:17:43.533Z,22.47
2019-03-01T23:20:13.022Z,24.77
2019-03-01T23:22:42.771Z,24.10
2019-03-01T23:25:13.584Z,24.87
2019-03-01T23:27:42.776Z,22.53
2019-03-01T23:30:12.000Z,29.32
2019-03-01T23:32:42.247Z,22.67
2019-03-01T23:35:14.645Z,25.27
2019-03-01T23:37:44.404Z,29.40
2019-03-01T23:40:13.688Z,30.43
2019-03-01T23:42:47.900Z,24.43
2019-03-01T23:45:18.515Z,29.70
2019-03-01T23:47:48.705Z,25.37
2019-03-01T23:50:17.898Z,23.43
2019-03-01T23:52:47.046Z,24.35
2019-03-01T23:55:19.043Z,29.25
2019-03-01T23:57:48.719Z,23.27
